Time;durP1;ratioP1;P1;durP2;ratioP2;P2;SDS_P1;SDS_P2;PMS_P1;PMS_P2;Temp;Humidity;BMP_temperature;BMP_pressure;BME280_temperature;BME280_humidity;BME280_pressure;Samples;Min_cycle;Max_cycle;Signal;HPM_P1;HPM_P2
2023/08/28 00:01:32;;;;;;;28.85;15.35;;;21.60;99.90;;;;;;5121052;27;20425;-70
2023/08/28 00:03:58;;;;;;;25.77;14.27;;;21.50;99.90;;;;;;5119410;27;20047;-69
2023/08/28 00:06:24;;;;;;;20.70;13.98;;;21.60;99.90;;;;;;5119132;27;20096;-70
2023/08/28 00:08:50;;;;;;;23.88;14.25;;;21.50;99.90;;;;;;5119624;27;20544;-69
2023/08/28 00:11:17;;;;;;;30.65;14.63;;;21.50;99.90;;;;;;5117810;27;20089;-70
2023/08/28 00:13:42;;;;;;;24.13;13.55;;;21.50;99.90;;;;;;5117481;27;21913;-70
2023/08/28 00:16:08;;;;;;;22.02;13.55;;;21.40;99.90;;;;;;5116877;27;20373;-69
2023/08/28 00:18:34;;;;;;;22.90;13.90;;;21.40;99.90;;;;;;5117212;27;20035;-70
2023/08/28 00:21:02;;;;;;;24.38;13.90;;;21.30;99.90;;;;;;5116269;27;20035;-69
2023/08/28 00:23:32;;;;;;;30.10;14.40;;;21.30;99.90;;;;;;5113660;27;21801;-69
2023/08/28 00:25:59;;;;;;;20.60;13.23;;;21.30;99.90;;;;;;5114193;27;20042;-70
2023/08/28 00:28:25;;;;;;;19.08;13.05;;;21.20;99.90;;;;;;5114605;27;20043;-69
2023/08/28 00:30:51;;;;;;;21.77;13.43;;;21.20;99.90;;;;;;5115463;27;20048;-69
2023/08/28 00:33:17;;;;;;;21.90;12.93;;;21.20;99.90;;;;;;5094538;27;20051;-70
2023/08/28 00:35:43;;;;;;;23.50;13.48;;;21.10;99.90;;;;;;5066983;27;20044;-69
2023/08/28 00:38:10;;;;;;;22.33;13.43;;;21.00;99.90;;;;;;5072214;27;20044;-70
2023/08/28 00:40:42;;;;;;;25.52;12.75;;;21.00;99.90;;;;;;5127407;27;20047;-69
2023/08/28 00:43:08;;;;;;;21.27;12.80;;;21.00;99.90;;;;;;5092531;27;20047;-70
2023/08/28 00:45:40;;;;;;;21.48;12.95;;;21.00;99.90;;;;;;5098537;27;20039;-69
2023/08/28 00:48:08;;;;;;;23.13;13.38;;;20.90;99.90;;;;;;5085410;27;20039;-70
2023/08/28 00:50:34;;;;;;;18.98;12.13;;;20.90;99.90;;;;;;5080095;27;20053;-70
2023/08/28 00:53:01;;;;;;;25.40;13.70;;;20.90;99.90;;;;;;5063042;28;20573;-70
2023/08/28 00:55:29;;;;;;;21.70;13.15;;;20.80;99.90;;;;;;5046947;28;20132;-68
2023/08/28 00:57:57;;;;;;;20.80;12.50;;;20.80;99.90;;;;;;5040791;28;20037;-70
2023/08/28 01:00:24;;;;;;;25.05;12.88;;;20.70;99.90;;;;;;5029616;27;20066;-70
2023/08/28 01:02:50;;;;;;;25.38;11.60;;;20.60;99.90;;;;;;5072434;27;20031;-69
2023/08/28 01:05:18;;;;;;;20.45;11.20;;;20.60;99.90;;;;;;5059848;28;20105;-69
2023/08/28 01:08:03;;;;;;;25.75;12.73;;;20.60;99.90;;;;;;5037382;28;20032;-68
2023/08/28 01:10:41;;;;;;;20.50;11.35;;;20.60;99.90;;;;;;5035095;27;20045;-69
2023/08/28 01:13:10;;;;;;;21.27;13.18;;;20.60;99.90;;;;;;5038659;28;20044;-69
2023/08/28 01:15:36;;;;;;;19.83;11.85;;;20.50;99.90;;;;;;4958712;28;1416162;-70
2023/08/28 01:18:05;;;;;;;22.17;11.55;;;20.60;99.90;;;;;;5036160;28;20398;-69
2023/08/28 01:20:33;;;;;;;23.33;11.63;;;20.60;99.90;;;;;;5038108;28;20529;-69
2023/08/28 01:23:17;;;;;;;20.35;11.93;;;20.60;99.90;;;;;;5043997;28;20060;-68
2023/08/28 01:25:46;;;;;;;25.58;12.60;;;20.60;99.90;;;;;;5052628;28;20423;-69
2023/08/28 01:28:12;;;;;;;18.80;11.13;;;20.60;99.90;;;;;;5039204;28;20587;-69
2023/08/28 01:30:38;;;;;;;23.00;11.77;;;20.50;99.90;;;;;;5059606;28;22022;-69
2023/08/28 01:33:04;;;;;;;19.08;11.27;;;20.50;99.90;;;;;;5054812;28;22139;-69
2023/08/28 01:35:32;;;;;;;19.33;10.65;;;20.50;99.90;;;;;;5028100;28;22850;-69
2023/08/28 01:38:19;;;;;;;21.40;11.63;;;20.40;99.90;;;;;;4991783;28;22673;-70
2023/08/28 01:41:07;;;;;;;17.70;10.90;;;20.50;99.90;;;;;;4988088;28;23460;-69
2023/08/28 01:43:48;;;;;;;18.55;10.63;;;20.40;99.90;;;;;;4970187;28;24379;-69
2023/08/28 01:46:17;;;;;;;;;;;20.40;99.90;;;;;;4954051;28;33168;-69
2023/08/28 01:48:53;;;;;;;19.38;11.10;;;20.20;99.90;;;;;;5000937;28;34000;-70
2023/08/28 01:51:23;;;;;;;18.38;11.13;;;20.10;99.90;;;;;;5004772;28;35506;-69
2023/08/28 01:53:49;;;;;;;22.30;10.80;;;20.10;99.90;;;;;;5043084;28;35721;-69
2023/08/28 01:56:21;;;;;;;17.42;10.88;;;20.10;99.90;;;;;;5035309;28;36693;-69
2023/08/28 01:58:53;;;;;;;20.75;10.57;;;20.10;99.90;;;;;;5026094;28;36672;-70
2023/08/28 02:01:19;;;;;;;22.45;11.00;;;20.00;99.90;;;;;;4996464;28;38790;-69
2023/08/28 02:03:46;;;;;;;21.25;11.75;;;20.10;99.90;;;;;;5001159;28;39374;-70
2023/08/28 02:06:12;;;;;;;19.63;11.88;;;20.10;99.90;;;;;;5000692;28;39167;-70
2023/08/28 02:08:38;;;;;;;20.40;12.05;;;20.00;99.90;;;;;;4982314;28;42120;-70
2023/08/28 02:11:05;;;;;;;20.27;11.15;;;19.90;99.90;;;;;;4950671;28;41830;-68
2023/08/28 02:13:31;;;;;;;23.90;12.63;;;19.80;99.90;;;;;;4975713;28;44086;-70
2023/08/28 02:15:57;;;;;;;24.25;11.75;;;19.80;99.90;;;;;;4995700;28;24953;-70
2023/08/28 02:18:23;;;;;;;21.92;10.93;;;19.80;99.90;;;;;;5010351;28;45994;-70
2023/08/28 02:20:50;;;;;;;20.23;11.32;;;19.80;99.90;;;;;;5035052;28;46531;-70
2023/08/28 02:23:16;;;;;;;19.20;11.63;;;19.80;99.90;;;;;;4985509;28;23883;-69
2023/08/28 02:25:46;;;;;;;16.20;11.50;;;19.70;99.90;;;;;;5012164;28;24139;-69
2023/08/28 02:28:12;;;;;;;23.40;11.25;;;19.70;99.90;;;;;;5034632;28;24653;-70
2023/08/28 02:30:39;;;;;;;20.45;11.43;;;19.60;99.90;;;;;;5008253;28;24790;-69
2023/08/28 02:33:05;;;;;;;17.20;10.80;;;19.60;99.90;;;;;;5003196;28;25001;-69
2023/08/28 02:35:31;;;;;;;21.20;11.23;;;19.70;99.90;;;;;;5009533;28;25433;-68
2023/08/28 02:37:57;;;;;;;21.92;10.55;;;19.70;99.90;;;;;;5029910;28;49553;-70
2023/08/28 02:40:24;;;;;;;18.75;10.98;;;19.60;99.90;;;;;;5015215;28;26972;-69
2023/08/28 02:42:50;;;;;;;22.25;11.13;;;19.60;99.90;;;;;;4984521;28;49620;-69
2023/08/28 02:45:16;;;;;;;22.55;11.57;;;19.60;99.90;;;;;;4991900;28;28478;-70
2023/08/28 02:47:42;;;;;;;17.73;10.25;;;19.50;99.90;;;;;;4991965;28;29795;-69
2023/08/28 02:50:08;;;;;;;18.98;10.70;;;19.50;99.90;;;;;;4982024;28;30423;-63
2023/08/28 02:52:34;;;;;;;20.40;11.13;;;19.50;99.90;;;;;;4976702;28;24845;-69
2023/08/28 02:55:00;;;;;;;21.15;11.13;;;19.40;99.90;;;;;;4924206;28;24909;-69
2023/08/28 02:57:26;;;;;;;20.38;12.10;;;19.40;99.90;;;;;;4962298;28;31986;-69
2023/08/28 02:59:52;;;;;;;20.27;11.13;;;19.40;99.90;;;;;;4922484;28;32831;-69
2023/08/28 03:02:18;;;;;;;29.60;11.15;;;19.40;99.90;;;;;;4940498;28;24948;-63
2023/08/28 03:04:44;;;;;;;20.90;11.25;;;19.40;99.90;;;;;;4923406;28;24849;-70
2023/08/28 03:07:10;;;;;;;20.33;10.90;;;19.40;99.90;;;;;;4937839;28;24764;-70
2023/08/28 03:09:37;;;;;;;23.38;10.82;;;19.30;99.90;;;;;;4938977;28;24981;-69
2023/08/28 03:12:04;;;;;;;22.98;11.07;;;19.40;99.90;;;;;;4973692;28;34356;-70
2023/08/28 03:14:30;;;;;;;23.10;11.60;;;19.40;99.90;;;;;;4983551;28;55415;-70
2023/08/28 03:16:56;;;;;;;23.40;11.30;;;19.40;99.90;;;;;;4947684;28;37263;-69
2023/08/28 03:19:22;;;;;;;17.88;11.30;;;19.40;99.90;;;;;;4980626;28;37557;-69
2023/08/28 03:21:48;;;;;;;23.20;11.45;;;19.50;99.90;;;;;;4983936;28;25054;-69
2023/08/28 03:24:14;;;;;;;21.55;11.93;;;19.50;99.90;;;;;;4981618;28;37963;-69
2023/08/28 03:26:40;;;;;;;21.52;10.82;;;19.40;99.90;;;;;;4970203;28;24740;-69
2023/08/28 03:29:05;;;;;;;20.95;10.57;;;19.40;99.90;;;;;;4996911;28;24797;-69
2023/08/28 03:31:31;;;;;;;20.75;11.07;;;19.30;99.90;;;;;;5021120;28;26891;-70
2023/08/28 03:34:00;;;;;;;21.02;10.98;;;19.20;99.90;;;;;;5029582;28;24573;-69
2023/08/28 03:36:26;;;;;;;20.77;11.25;;;19.20;99.90;;;;;;4983949;28;24151;-69
2023/08/28 03:38:52;;;;;;;20.17;11.18;;;19.20;99.90;;;;;;5018548;28;24657;-70
2023/08/28 03:41:18;;;;;;;22.85;11.00;;;19.10;99.90;;;;;;4997256;28;24870;-69
2023/08/28 03:43:44;;;;;;;22.83;11.25;;;19.10;99.90;;;;;;4988693;28;24828;-69
2023/08/28 03:46:11;;;;;;;27.17;10.85;;;19.10;99.90;;;;;;4994475;28;24788;-69
2023/08/28 03:48:37;;;;;;;24.20;10.43;;;19.10;99.90;;;;;;5003295;28;40699;-69
2023/08/28 03:51:03;;;;;;;19.05;10.13;;;19.00;99.90;;;;;;4998702;28;41106;-69
2023/08/28 03:53:29;;;;;;;18.08;10.15;;;18.90;99.90;;;;;;4990478;28;42652;-69
2023/08/28 03:55:55;;;;;;;18.85;11.00;;;18.90;99.90;;;;;;4950199;28;24959;-68
2023/08/28 03:58:22;;;;;;;18.42;10.70;;;18.80;99.90;;;;;;4964080;28;25037;-70
2023/08/28 04:00:53;;;;;;;21.83;10.75;;;18.80;99.90;;;;;;4955589;28;24332;-69
2023/08/28 04:03:20;;;;;;;18.10;10.35;;;18.80;99.90;;;;;;4871095;28;48698;-70
2023/08/28 04:05:48;;;;;;;22.58;11.02;;;18.70;99.90;;;;;;4953451;28;24372;-69
2023/08/28 04:08:16;;;;;;;17.90;11.18;;;18.70;99.90;;;;;;4975652;28;24279;-69
2023/08/28 04:10:42;;;;;;;17.58;11.05;;;18.70;99.90;;;;;;4922787;28;24778;-70
2023/08/28 04:13:08;;;;;;;18.13;11.38;;;18.80;99.90;;;;;;4989219;28;24942;-70
2023/08/28 04:15:34;;;;;;;25.45;11.70;;;18.90;99.90;;;;;;4968473;28;30512;-69
2023/08/28 04:18:00;;;;;;;20.95;10.98;;;18.90;99.90;;;;;;4981280;28;24505;-69
2023/08/28 04:20:26;;;;;;;27.33;12.15;;;18.90;99.90;;;;;;4904700;28;24405;-68
2023/08/28 04:22:53;;;;;;;18.27;11.07;;;18.90;99.90;;;;;;4955521;28;24083;-70
2023/08/28 04:25:19;;;;;;;26.80;12.52;;;18.90;99.90;;;;;;4969024;28;24233;-70
2023/08/28 04:27:45;;;;;;;20.95;10.85;;;19.00;99.90;;;;;;4987124;28;24306;-70
2023/08/28 04:30:11;;;;;;;20.23;11.52;;;19.10;99.90;;;;;;4927834;28;24019;-69
2023/08/28 04:32:37;;;;;;;20.95;10.68;;;19.20;99.90;;;;;;4939785;28;30601;-69
2023/08/28 04:35:04;;;;;;;26.80;11.20;;;19.20;99.90;;;;;;4950148;28;24235;-67
2023/08/28 04:37:30;;;;;;;20.35;11.18;;;19.30;99.90;;;;;;4982807;28;24325;-69
2023/08/28 04:39:56;;;;;;;28.48;11.80;;;19.30;99.90;;;;;;4944102;28;24645;-70
2023/08/28 04:42:22;;;;;;;32.88;12.40;;;19.30;99.90;;;;;;4922516;28;48285;-69
2023/08/28 04:44:48;;;;;;;20.95;10.60;;;19.50;99.90;;;;;;4977809;28;49277;-69
2023/08/28 04:47:14;;;;;;;25.38;12.23;;;19.50;99.90;;;;;;4907903;28;50268;-68
2023/08/28 04:49:40;;;;;;;28.65;13.20;;;19.60;99.90;;;;;;4935225;28;51049;-70
2023/08/28 04:52:07;;;;;;;32.40;13.32;;;19.70;99.90;;;;;;4934745;28;64721;-70
2023/08/28 04:54:33;;;;;;;27.00;11.95;;;19.70;99.90;;;;;;4907661;28;66638;-69
2023/08/28 04:56:59;;;;;;;30.20;13.38;;;19.90;99.90;;;;;;4898616;28;66987;-69
2023/08/28 04:59:26;;;;;;;26.80;12.52;;;20.00;99.90;;;;;;4892772;28;44040;-69
2023/08/28 05:01:52;;;;;;;31.60;12.68;;;20.20;99.90;;;;;;4928640;28;43610;-69
2023/08/28 05:04:18;;;;;;;25.20;11.98;;;20.30;99.90;;;;;;4957564;28;24961;-69
2023/08/28 05:09:22;;;;;;;34.25;12.85;;;20.20;99.90;;;;;;5152506;27;20157;-69
2023/08/28 05:11:48;;;;;;;29.92;13.48;;;20.30;99.90;;;;;;5110635;27;20036;-72
2023/08/28 05:14:14;;;;;;;26.30;12.77;;;20.50;99.90;;;;;;5110097;27;20067;-69
2023/08/28 05:16:40;;;;;;;25.35;13.15;;;20.60;99.90;;;;;;5109848;27;20413;-70
2023/08/28 05:19:06;;;;;;;27.35;13.38;;;20.80;99.90;;;;;;5100576;27;20047;-70
2023/08/28 05:21:32;;;;;;;31.77;13.55;;;20.90;99.90;;;;;;5020562;28;1380780;-69
2023/08/28 05:23:58;;;;;;;34.25;14.30;;;21.00;99.90;;;;;;5062499;28;20037;-68
2023/08/28 05:26:24;;;;;;;36.67;13.63;;;21.00;99.90;;;;;;5032221;28;20069;-70
2023/08/28 05:28:52;;;;;;;26.63;12.68;;;21.10;99.90;;;;;;5049648;28;20728;-69
2023/08/28 05:31:19;;;;;;;20.58;12.15;;;21.20;99.90;;;;;;5060468;28;20130;-69
2023/08/28 05:33:44;;;;;;;47.05;16.27;;;21.30;99.90;;;;;;5085974;28;20397;-69
2023/08/28 05:36:11;;;;;;;38.08;14.05;;;21.40;99.90;;;;;;5099780;27;20092;-69
2023/08/28 05:38:37;;;;;;;25.60;12.05;;;21.70;99.90;;;;;;5104733;27;20096;-69
2023/08/28 05:41:04;;;;;;;34.83;13.85;;;21.80;99.90;;;;;;5087673;28;20040;-69
2023/08/28 05:43:30;;;;;;;36.53;13.90;;;21.80;99.90;;;;;;5092147;28;20082;-68
2023/08/28 05:45:56;;;;;;;40.40;13.43;;;22.00;99.90;;;;;;5079399;28;20074;-70
2023/08/28 05:48:22;;;;;;;35.72;13.20;;;22.10;99.90;;;;;;5065515;28;20048;-69
2023/08/28 05:50:50;;;;;;;36.92;13.63;;;22.20;99.90;;;;;;5025486;28;20039;-69
2023/08/28 05:53:16;;;;;;;41.35;14.10;;;22.20;99.90;;;;;;5066368;27;20048;-63
2023/08/28 05:55:42;;;;;;;34.05;13.00;;;22.30;99.90;;;;;;5061172;28;20048;-70
2023/08/28 05:58:08;;;;;;;39.60;14.68;;;22.40;99.90;;;;;;5098594;28;20565;-70
2023/08/28 06:00:34;;;;;;;37.08;14.10;;;22.50;99.90;;;;;;5085487;28;20044;-70
2023/08/28 06:03:00;;;;;;;29.55;13.45;;;22.60;99.90;;;;;;5016769;28;20070;-70
2023/08/28 06:05:27;;;;;;;33.53;13.93;;;22.70;99.90;;;;;;5008995;28;20139;-70
2023/08/28 06:07:53;;;;;;;26.88;11.38;;;22.80;99.90;;;;;;5029612;28;20106;-70
2023/08/28 06:10:19;;;;;;;28.83;13.52;;;22.90;99.90;;;;;;5068244;27;20044;-70
2023/08/28 06:12:48;;;;;;;27.88;12.98;;;23.10;99.90;;;;;;5075211;28;20101;-71
2023/08/28 06:15:18;;;;;;;32.60;12.77;;;23.30;99.90;;;;;;5074275;28;20400;-71
2023/08/28 06:17:50;;;;;;;28.23;13.10;;;23.50;99.90;;;;;;5048458;28;20055;-70
2023/08/28 06:20:16;;;;;;;35.20;12.25;;;23.60;99.90;;;;;;4943194;28;20370;-70
2023/08/28 06:22:45;;;;;;;38.40;12.27;;;23.70;99.90;;;;;;4946969;28;20496;-71
2023/08/28 06:25:14;;;;;;;38.90;11.77;;;23.90;99.90;;;;;;4938270;28;20040;-71
2023/08/28 06:27:40;;;;;;;35.08;12.43;;;24.10;98.30;;;;;;4870400;28;20070;-71
2023/08/28 06:30:06;;;;;;;42.67;11.75;;;24.20;98.00;;;;;;4923957;28;20043;-70
2023/08/28 06:32:34;;;;;;;31.58;12.32;;;24.50;97.10;;;;;;4977213;28;20519;-71
2023/08/28 06:35:00;;;;;;;34.22;13.05;;;24.80;97.10;;;;;;5028455;28;20033;-71
2023/08/28 06:37:26;;;;;;;28.50;11.55;;;24.90;95.30;;;;;;5049529;28;20064;-70
2023/08/28 06:39:53;;;;;;;40.03;13.00;;;25.30;95.40;;;;;;5041677;28;20490;-71
2023/08/28 06:42:19;;;;;;;33.00;11.63;;;25.70;93.50;;;;;;5066672;28;20044;-71
2023/08/28 06:44:45;;;;;;;42.83;13.02;;;26.00;93.10;;;;;;5017876;28;20057;-71
2023/08/28 06:47:13;;;;;;;41.30;11.60;;;26.30;92.90;;;;;;5026221;28;20049;-70
2023/08/28 06:49:39;;;;;;;31.85;11.32;;;26.70;92.40;;;;;;5051011;28;20128;-71
2023/08/28 06:52:05;;;;;;;35.97;12.45;;;27.00;91.30;;;;;;5040554;28;20884;-71
2023/08/28 06:54:32;;;;;;;35.83;12.73;;;27.20;87.20;;;;;;5075123;28;21331;-71
2023/08/28 06:56:59;;;;;;;38.45;13.07;;;27.60;88.60;;;;;;5006661;28;22222;-71
2023/08/28 06:59:25;;;;;;;43.90;12.88;;;27.90;86.20;;;;;;4960133;28;23083;-72
2023/08/28 07:01:51;;;;;;;44.08;12.10;;;28.50;81.90;;;;;;5004534;28;23578;-71
2023/08/28 07:04:17;;;;;;;30.60;12.82;;;28.70;77.90;;;;;;5028327;28;24098;-71
2023/08/28 07:06:43;;;;;;;47.00;12.40;;;29.10;76.30;;;;;;5045650;28;24963;-71
2023/08/28 07:09:09;;;;;;;40.10;13.35;;;29.20;70.40;;;;;;5069966;28;26643;-69
2023/08/28 07:11:36;;;;;;;36.58;13.10;;;29.70;71.20;;;;;;5074624;28;26857;-72
2023/08/28 07:14:03;;;;;;;52.08;17.13;;;29.90;68.70;;;;;;5074338;28;26944;-72
2023/08/28 07:16:29;;;;;;;31.52;11.38;;;30.20;65.20;;;;;;5043119;28;27956;-72
2023/08/28 07:18:55;;;;;;;42.70;12.52;;;30.30;64.70;;;;;;5054040;28;33358;-71
2023/08/28 07:21:21;;;;;;;34.95;11.48;;;30.20;63.60;;;;;;5025072;28;34131;-72
2023/08/28 07:23:47;;;;;;;46.22;12.40;;;30.50;61.90;;;;;;5059414;28;35343;-72
2023/08/28 07:26:13;;;;;;;42.80;11.52;;;30.60;61.10;;;;;;5077072;27;35664;-71
2023/08/28 07:28:39;;;;;;;30.35;10.00;;;30.70;59.20;;;;;;5092751;27;25009;-72
2023/08/28 07:31:05;;;;;;;31.65;12.18;;;30.70;60.60;;;;;;5084428;28;24987;-72
2023/08/28 07:33:31;;;;;;;30.60;9.98;;;30.70;56.00;;;;;;5079267;28;25142;-72
2023/08/28 07:35:57;;;;;;;28.40;9.93;;;30.80;56.90;;;;;;5078755;28;24899;-72
2023/08/28 07:38:23;;;;;;;26.10;9.70;;;31.30;56.80;;;;;;5062240;28;24744;-72
2023/08/28 07:40:50;;;;;;;28.05;9.65;;;31.70;55.60;;;;;;4994642;28;24956;-72
2023/08/28 07:43:16;;;;;;;32.22;10.07;;;31.40;51.50;;;;;;5027697;28;24593;-72
2023/08/28 07:45:42;;;;;;;37.92;10.30;;;31.60;51.10;;;;;;5026797;28;24884;-71
2023/08/28 07:48:08;;;;;;;41.80;11.20;;;32.00;51.70;;;;;;5018184;28;24948;-73
2023/08/28 07:50:34;;;;;;;23.17;8.98;;;32.50;50.00;;;;;;5002601;28;38815;-73
2023/08/28 07:53:00;;;;;;;24.10;9.20;;;32.10;47.20;;;;;;5018282;28;24999;-72
2023/08/28 07:55:27;;;;;;;32.35;10.60;;;32.20;47.60;;;;;;5041518;28;24840;-73
2023/08/28 07:57:53;;;;;;;32.75;10.35;;;32.60;44.40;;;;;;5018804;28;25111;-74
2023/08/28 08:00:22;;;;;;;22.77;8.55;;;32.50;43.10;;;;;;5028464;28;40935;-73
2023/08/28 08:02:53;;;;;;;27.23;10.50;;;32.50;44.70;;;;;;5034081;28;33226;-74
2023/08/28 08:05:19;;;;;;;25.08;8.50;;;32.60;43.10;;;;;;5014474;28;24773;-75
2023/08/28 08:07:45;;;;;;;35.85;9.35;;;32.70;43.90;;;;;;5068191;27;24601;-72
2023/08/28 08:10:13;;;;;;;22.55;9.35;;;33.50;42.70;;;;;;5081633;28;42961;-73
2023/08/28 08:12:40;;;;;;;25.88;9.02;;;33.80;41.30;;;;;;4944412;28;42467;-74
2023/08/28 08:15:16;;;;;;;25.65;9.13;;;34.70;42.20;;;;;;4940015;28;24992;-74
2023/08/28 08:17:42;;;;;;;33.97;9.43;;;35.20;38.40;;;;;;4981635;28;24938;-75
2023/08/28 08:20:11;;;;;;;25.65;9.30;;;34.70;38.30;;;;;;4993879;28;45905;-75
2023/08/28 08:22:42;;;;;;;26.20;10.13;;;35.10;36.20;;;;;;5002949;28;44505;-74
2023/08/28 08:25:10;;;;;;;23.33;9.30;;;35.30;36.30;;;;;;5009335;28;25022;-73
2023/08/28 08:27:38;;;;;;;21.25;9.55;;;35.70;40.40;;;;;;4982879;28;45219;-73
2023/08/28 08:30:08;;;;;;;26.30;11.10;;;36.40;38.80;;;;;;5003399;28;24986;-74
2023/08/28 08:32:34;;;;;;;25.67;9.52;;;36.50;36.50;;;;;;5002008;28;24931;-74
2023/08/28 08:35:00;;;;;;;25.48;9.20;;;36.70;35.60;;;;;;5027567;28;45697;-74
2023/08/28 08:37:29;;;;;;;23.88;9.25;;;37.20;35.30;;;;;;4991308;28;46191;-72
2023/08/28 08:39:55;;;;;;;27.30;10.52;;;37.30;34.50;;;;;;4988176;28;24916;-74
2023/08/28 08:42:21;;;;;;;27.73;10.35;;;37.80;32.90;;;;;;5023988;28;46545;-74
2023/08/28 08:44:47;;;;;;;27.98;10.55;;;37.80;31.50;;;;;;5043517;28;24827;-74
2023/08/28 08:47:15;;;;;;;26.50;9.90;;;37.80;31.00;;;;;;4976922;28;25023;-75
2023/08/28 08:49:46;;;;;;;33.63;10.27;;;38.10;30.00;;;;;;4975644;28;47548;-73
2023/08/28 08:52:15;;;;;;;23.15;8.68;;;38.50;31.20;;;;;;4985984;28;27570;-73
2023/08/28 08:54:43;;;;;;;25.52;8.40;;;38.40;27.80;;;;;;4958299;28;26116;-73
2023/08/28 08:57:15;;;;;;;24.50;8.95;;;38.40;27.40;;;;;;4971700;28;24943;-74
2023/08/28 08:59:42;;;;;;;20.85;8.70;;;38.50;28.30;;;;;;4975082;28;25005;-72
2023/08/28 09:02:09;;;;;;;25.38;8.60;;;38.30;30.70;;;;;;4983033;28;48932;-74
2023/08/28 09:04:35;;;;;;;25.88;8.18;;;38.60;27.80;;;;;;5008667;28;25029;-74
2023/08/28 09:07:03;;;;;;;28.67;9.52;;;38.50;27.80;;;;;;5027909;28;49111;-74
2023/08/28 09:09:33;;;;;;;22.17;8.52;;;38.90;28.60;;;;;;5004274;28;49856;-73
2023/08/28 09:12:02;;;;;;;23.50;9.43;;;38.80;26.40;;;;;;4993191;28;24997;-73
2023/08/28 09:14:31;;;;;;;24.73;9.07;;;38.70;28.30;;;;;;4995913;28;30217;-73
2023/08/28 09:16:57;;;;;;;25.08;9.05;;;38.40;28.50;;;;;;5006807;28;49431;-73
2023/08/28 09:19:23;;;;;;;20.13;8.02;;;38.40;28.50;;;;;;5003099;28;31427;-71
2023/08/28 09:21:49;;;;;;;24.48;9.38;;;38.30;26.90;;;;;;4947599;28;49554;-72
2023/08/28 09:24:22;;;;;;;25.25;10.32;;;37.60;28.10;;;;;;4942856;28;49812;-72
2023/08/28 09:26:53;;;;;;;19.98;9.52;;;38.10;28.10;;;;;;4904932;28;48948;-72
2023/08/28 09:29:23;;;;;;;25.48;10.82;;;38.70;27.20;;;;;;4957264;28;33817;-73
2023/08/28 09:32:00;;;;;;;33.03;9.15;;;39.20;26.50;;;;;;5007566;28;33768;-72
2023/08/28 09:34:39;;;;;;;34.85;9.20;;;39.80;27.70;;;;;;4997409;28;24674;-71
2023/08/28 09:37:09;;;;;;;32.53;8.77;;;40.40;27.20;;;;;;4930553;28;49052;-72
2023/08/28 09:39:53;;;;;;;27.40;9.55;;;40.70;25.50;;;;;;4980040;28;49373;-72
2023/08/28 09:42:24;;;;;;;16.02;7.72;;;40.50;24.30;;;;;;4986475;28;24639;-73
2023/08/28 09:44:50;;;;;;;24.92;7.53;;;40.60;24.50;;;;;;4949443;28;24757;-72
2023/08/28 09:47:23;;;;;;;19.88;8.35;;;40.70;22.50;;;;;;4973652;28;24763;-72
2023/08/28 09:49:51;;;;;;;24.80;8.73;;;40.80;22.40;;;;;;4959869;28;24994;-72
2023/08/28 09:52:25;;;;;;;22.20;8.63;;;41.00;22.40;;;;;;4971281;28;41329;-73
2023/08/28 09:55:04;;;;;;;23.05;7.53;;;41.20;22.20;;;;;;4583709;29;61179;-72
2023/08/28 09:57:33;;;;;;;19.95;7.57;;;41.70;22.10;;;;;;4619556;30;24240;-72
2023/08/28 10:00:00;;;;;;;25.00;8.25;;;41.80;20.70;;;;;;4549296;30;78182;-72
2023/08/28 10:02:30;;;;;;;31.02;8.45;;;41.80;21.50;;;;;;4524690;30;39705;-72
2023/08/28 10:04:59;;;;;;;26.02;8.40;;;42.10;21.90;;;;;;4514668;31;32206;-72
2023/08/28 10:07:26;;;;;;;22.30;7.80;;;41.00;21.40;;;;;;4483830;31;32863;-72
2023/08/28 10:09:55;;;;;;;22.85;8.00;;;41.30;21.80;;;;;;4514812;30;40968;-73
2023/08/28 10:12:22;;;;;;;23.27;7.10;;;42.00;21.10;;;;;;4493350;30;40823;-73
2023/08/28 10:14:51;;;;;;;34.15;8.65;;;42.20;19.70;;;;;;4504010;30;40924;-73
2023/08/28 10:17:18;;;;;;;23.27;7.45;;;42.00;21.10;;;;;;4526026;30;24823;-74
2023/08/28 10:20:05;;;;;;;21.40;7.45;;;41.50;19.10;;;;;;4530808;30;25129;-73
2023/08/28 10:22:35;;;;;;;23.55;7.57;;;41.60;19.90;;;;;;4463490;31;41905;-73
2023/08/28 10:25:01;;;;;;;;;;;42.10;20.50;;;;;;4513059;30;24681;-72
2023/08/28 10:27:29;;;;;;;18.95;6.90;;;42.50;19.90;;;;;;4591376;30;24621;-71
2023/08/28 10:29:57;;;;;;;15.20;6.18;;;42.70;20.70;;;;;;4564240;30;24800;-73
2023/08/28 10:32:24;;;;;;;19.45;7.45;;;42.60;18.50;;;;;;4525059;30;24947;-74
2023/08/28 10:34:53;;;;;;;21.45;6.53;;;42.60;19.80;;;;;;4541450;30;27219;-73
2023/08/28 10:37:19;;;;;;;;;;;41.00;18.80;;;;;;4628459;30;24879;-74
2023/08/28 10:39:45;;;;;;;16.75;6.63;;;41.30;19.40;;;;;;4655522;29;27396;-74
2023/08/28 10:42:18;;;;;;;29.08;7.47;;;41.70;18.90;;;;;;4715953;29;27151;-73
2023/08/28 10:44:46;;;;;;;26.48;7.22;;;41.10;19.70;;;;;;4746562;29;24637;-72
2023/08/28 10:47:19;;;;;;;19.17;6.50;;;41.30;18.90;;;;;;4783971;29;35201;-73
2023/08/28 10:49:46;;;;;;;19.90;6.18;;;42.00;17.70;;;;;;4786853;29;24832;-73
2023/08/28 10:52:12;;;;;;;23.15;7.53;;;41.50;17.40;;;;;;4766149;29;24938;-74
2023/08/28 10:54:40;;;;;;;15.75;6.88;;;40.70;17.80;;;;;;4779418;29;24687;-72
2023/08/28 10:57:10;;;;;;;18.25;6.60;;;40.90;18.40;;;;;;4816301;29;24537;-74
2023/08/28 10:59:45;;;;;;;20.95;8.00;;;40.40;19.20;;;;;;4882095;28;24460;-74
2023/08/28 11:02:12;;;;;;;17.10;6.43;;;41.00;18.00;;;;;;4909485;28;24360;-74
2023/08/28 11:04:40;;;;;;;17.30;5.90;;;40.40;19.00;;;;;;4908076;28;24814;-73
2023/08/28 11:07:21;;;;;;;22.15;7.10;;;41.20;17.70;;;;;;4919939;28;25039;-74
2023/08/28 11:09:48;;;;;;;21.88;6.70;;;41.60;17.60;;;;;;5009153;28;24978;-73
2023/08/28 11:12:15;;;;;;;17.50;6.22;;;42.30;18.10;;;;;;4988507;28;25076;-75
2023/08/28 11:14:56;;;;;;;24.50;8.10;;;41.90;15.80;;;;;;4998747;28;24764;-74
2023/08/28 11:17:25;;;;;;;16.83;5.85;;;42.30;16.40;;;;;;4982022;28;25407;-72
2023/08/28 11:22:34;;;;;;;16.67;5.40;;;42.80;16.10;;;;;;4967919;28;24648;-73
2023/08/28 11:25:04;;;;;;;16.98;5.75;;;43.30;15.30;;;;;;4931840;28;24800;-73
2023/08/28 11:27:35;;;;;;;21.45;6.10;;;43.60;15.80;;;;;;4894684;28;24396;-74
2023/08/28 11:30:05;;;;;;;18.95;5.63;;;43.80;14.30;;;;;;4938902;28;24912;-74
2023/08/28 11:32:32;;;;;;;22.13;6.70;;;44.20;14.00;;;;;;4923916;28;24843;-74
2023/08/28 11:35:08;;;;;;;22.20;6.70;;;44.20;14.00;;;;;;4893889;28;24860;-74
2023/08/28 11:37:55;;;;;;;20.23;5.40;;;42.70;14.80;;;;;;4864445;28;40485;-73
2023/08/28 11:40:25;;;;;;;14.70;5.47;;;42.30;15.20;;;;;;4834561;28;40569;-74
2023/08/28 11:43:07;;;;;;;17.90;6.05;;;42.00;13.90;;;;;;4903956;28;24550;-72
2023/08/28 11:45:34;;;;;;;11.43;5.22;;;41.60;15.20;;;;;;4902770;28;24006;-73
2023/08/28 11:48:07;;;;;;;22.17;5.82;;;42.30;15.30;;;;;;4961927;28;24247;-73
2023/08/28 11:53:14;;;;;;;19.20;5.85;;;42.30;14.30;;;;;;5132367;27;20367;-73
2023/08/28 11:55:43;;;;;;;18.42;5.68;;;42.70;14.30;;;;;;5132659;28;20140;-74
2023/08/28 11:58:09;;;;;;;19.80;5.05;;;42.40;13.70;;;;;;5131642;28;20054;-74
2023/08/28 12:00:35;;;;;;;21.77;5.70;;;42.40;15.00;;;;;;5123146;28;20022;-74
2023/08/28 12:03:01;;;;;;;17.45;5.47;;;42.30;13.70;;;;;;5111933;28;20027;-74
2023/08/28 12:05:27;;;;;;;23.52;6.38;;;42.30;14.40;;;;;;5111760;28;20385;-74
2023/08/28 12:07:53;;;;;;;21.00;8.63;;;42.30;14.70;;;;;;5111936;28;20457;-74
2023/08/28 12:10:19;;;;;;;25.92;6.88;;;42.10;14.70;;;;;;5123532;28;20079;-73
2023/08/28 12:12:46;;;;;;;16.27;4.93;;;42.20;15.10;;;;;;5107814;28;20027;-73
2023/08/28 12:15:12;;;;;;;17.95;5.93;;;42.30;14.50;;;;;;5131860;28;20032;-73
2023/08/28 12:17:41;;;;;;;17.60;6.22;;;42.40;14.50;;;;;;5125852;28;20028;-74
2023/08/28 12:20:17;;;;;;;16.17;6.13;;;41.90;14.90;;;;;;5115630;28;20028;-74
2023/08/28 12:22:46;;;;;;;18.08;5.40;;;41.50;15.20;;;;;;5111492;28;20028;-73
2023/08/28 12:25:12;;;;;;;19.05;5.32;;;42.00;15.60;;;;;;5111721;28;20024;-73
2023/08/28 12:27:38;;;;;;;22.90;5.57;;;42.60;14.90;;;;;;5113733;28;20498;-73
2023/08/28 12:30:06;;;;;;;16.42;6.00;;;43.10;14.10;;;;;;5131348;28;20496;-74
2023/08/28 12:32:32;;;;;;;16.13;6.15;;;43.40;16.60;;;;;;5131510;28;20461;-73
2023/08/28 12:35:11;;;;;;;21.77;5.20;;;43.70;12.80;;;;;;5131212;28;20012;-74
2023/08/28 12:37:37;;;;;;;17.17;5.85;;;43.70;13.80;;;;;;5129831;28;20023;-73
2023/08/28 12:40:06;;;;;;;15.90;6.57;;;43.00;12.30;;;;;;5131480;28;20115;-74
2023/08/28 12:42:32;;;;;;;17.23;6.18;;;42.90;12.50;;;;;;5131132;28;20114;-73